sensor_id;sensor_type;location;lat;lon;timestamp;temperature;humidity
19180;DHT22;9722;48.754;8.868;2022-12-29T00:01:08;8.00;90.80
19180;DHT22;9722;48.754;8.868;2022-12-29T00:04:29;8.00;90.60
19180;DHT22;9722;48.754;8.868;2022-12-29T00:07:49;8.10;90.80
19180;DHT22;9722;48.754;8.868;2022-12-29T00:11:16;8.10;90.30
19180;DHT22;9722;48.754;8.868;2022-12-29T00:14:37;8.10;90.30
19180;DHT22;9722;48.754;8.868;2022-12-29T00:18:16;8.10;90.30
19180;DHT22;9722;48.754;8.868;2022-12-29T00:21:36;8.10;90.30
19180;DHT22;9722;48.754;8.868;2022-12-29T00:25:15;8.00;90.30
19180;DHT22;9722;48.754;8.868;2022-12-29T00:28:55;8.00;90.30
19180;DHT22;9722;48.754;8.868;2022-12-29T00:32:34;8.00;90.30
19180;DHT22;9722;48.754;8.868;2022-12-29T00:39:39;8.00;90.30
19180;DHT22;9722;48.754;8.868;2022-12-29T00:43:18;8.00;90.30
19180;DHT22;9722;48.754;8.868;2022-12-29T00:46:57;8.10;90.20
19180;DHT22;9722;48.754;8.868;2022-12-29T00:50:22;8.10;90.20
19180;DHT22;9722;48.754;8.868;2022-12-29T00:53:42;8.20;90.20
19180;DHT22;9722;48.754;8.868;2022-12-29T00:57:05;8.20;90.10
19180;DHT22;9722;48.754;8.868;2022-12-29T01:00:26;8.20;90.10
19180;DHT22;9722;48.754;8.868;2022-12-29T01:03:47;8.30;90.10
19180;DHT22;9722;48.754;8.868;2022-12-29T01:07:07;8.30;90.00
19180;DHT22;9722;48.754;8.868;2022-12-29T01:10:28;8.40;90.00
19180;DHT22;9722;48.754;8.868;2022-12-29T01:13:48;8.40;90.00
19180;DHT22;9722;48.754;8.868;2022-12-29T01:17:09;8.50;90.00
19180;DHT22;9722;48.754;8.868;2022-12-29T01:20:29;8.60;89.70
19180;DHT22;9722;48.754;8.868;2022-12-29T01:23:50;8.70;89.50
19180;DHT22;9722;48.754;8.868;2022-12-29T01:27:10;8.80;89.10
19180;DHT22;9722;48.754;8.868;2022-12-29T01:30:32;8.90;88.70
19180;DHT22;9722;48.754;8.868;2022-12-29T01:33:52;9.10;88.20
19180;DHT22;9722;48.754;8.868;2022-12-29T01:37:13;9.20;88.00
19180;DHT22;9722;48.754;8.868;2022-12-29T01:40:33;9.20;87.60
19180;DHT22;9722;48.754;8.868;2022-12-29T01:43:56;9.30;87.30
19180;DHT22;9722;48.754;8.868;2022-12-29T01:47:48;9.30;86.80
19180;DHT22;9722;48.754;8.868;2022-12-29T01:51:10;9.40;86.50
19180;DHT22;9722;48.754;8.868;2022-12-29T01:54:36;9.40;86.20
19180;DHT22;9722;48.754;8.868;2022-12-29T01:58:01;9.40;86.00
19180;DHT22;9722;48.754;8.868;2022-12-29T02:01:24;9.50;85.90
19180;DHT22;9722;48.754;8.868;2022-12-29T02:04:44;9.40;85.40
19180;DHT22;9722;48.754;8.868;2022-12-29T02:08:05;9.50;85.20
19180;DHT22;9722;48.754;8.868;2022-12-29T02:11:27;9.50;85.60
19180;DHT22;9722;48.754;8.868;2022-12-29T02:14:53;9.50;84.70
19180;DHT22;9722;48.754;8.868;2022-12-29T02:25:59;9.60;84.00
19180;DHT22;9722;48.754;8.868;2022-12-29T02:33:20;9.50;83.80
19180;DHT22;9722;48.754;8.868;2022-12-29T02:40:38;9.60;83.60
19180;DHT22;9722;48.754;8.868;2022-12-29T02:47:54;9.60;83.40
19180;DHT22;9722;48.754;8.868;2022-12-29T02:51:27;9.60;83.30
19180;DHT22;9722;48.754;8.868;2022-12-29T02:54:50;9.60;83.20
19180;DHT22;9722;48.754;8.868;2022-12-29T02:58:22;9.70;82.90
19180;DHT22;9722;48.754;8.868;2022-12-29T03:01:57;9.80;82.70
19180;DHT22;9722;48.754;8.868;2022-12-29T03:09:30;9.70;82.90
19180;DHT22;9722;48.754;8.868;2022-12-29T03:13:18;9.80;82.80
19180;DHT22;9722;48.754;8.868;2022-12-29T03:17:07;10.00;80.90
19180;DHT22;9722;48.754;8.868;2022-12-29T03:20:58;10.20;80.40
19180;DHT22;9722;48.754;8.868;2022-12-29T03:24:25;10.40;79.10
19180;DHT22;9722;48.754;8.868;2022-12-29T03:27:52;10.60;78.00
19180;DHT22;9722;48.754;8.868;2022-12-29T03:31:14;10.70;77.20
19180;DHT22;9722;48.754;8.868;2022-12-29T03:34:35;10.90;76.50
19180;DHT22;9722;48.754;8.868;2022-12-29T03:38:30;11.00;76.10
19180;DHT22;9722;48.754;8.868;2022-12-29T03:42:01;11.00;76.30
19180;DHT22;9722;48.754;8.868;2022-12-29T03:45:23;11.10;75.40
19180;DHT22;9722;48.754;8.868;2022-12-29T03:48:43;11.10;74.40
19180;DHT22;9722;48.754;8.868;2022-12-29T03:52:04;11.10;74.40
19180;DHT22;9722;48.754;8.868;2022-12-29T03:55:25;11.10;74.30
19180;DHT22;9722;48.754;8.868;2022-12-29T03:58:45;11.10;74.20
19180;DHT22;9722;48.754;8.868;2022-12-29T04:02:06;11.10;74.10
19180;DHT22;9722;48.754;8.868;2022-12-29T04:05:26;11.10;74.20
19180;DHT22;9722;48.754;8.868;2022-12-29T04:08:47;11.00;74.10
19180;DHT22;9722;48.754;8.868;2022-12-29T04:12:07;11.10;74.10
19180;DHT22;9722;48.754;8.868;2022-12-29T04:15:28;11.00;74.30
19180;DHT22;9722;48.754;8.868;2022-12-29T04:18:48;11.00;74.60
19180;DHT22;9722;48.754;8.868;2022-12-29T04:22:09;11.00;75.00
19180;DHT22;9722;48.754;8.868;2022-12-29T04:25:30;11.00;75.00
19180;DHT22;9722;48.754;8.868;2022-12-29T04:28:51;11.00;74.80
19180;DHT22;9722;48.754;8.868;2022-12-29T04:32:11;11.10;75.00
19180;DHT22;9722;48.754;8.868;2022-12-29T04:35:32;11.10;74.70
19180;DHT22;9722;48.754;8.868;2022-12-29T04:38:52;11.20;74.60
19180;DHT22;9722;48.754;8.868;2022-12-29T04:42:13;11.20;74.40
19180;DHT22;9722;48.754;8.868;2022-12-29T04:45:33;11.20;74.30
19180;DHT22;9722;48.754;8.868;2022-12-29T04:48:54;11.30;74.40
19180;DHT22;9722;48.754;8.868;2022-12-29T04:52:15;11.30;74.50
19180;DHT22;9722;48.754;8.868;2022-12-29T04:55:35;11.30;74.50
19180;DHT22;9722;48.754;8.868;2022-12-29T04:58:56;11.30;74.70
19180;DHT22;9722;48.754;8.868;2022-12-29T05:02:16;11.30;74.90
19180;DHT22;9722;48.754;8.868;2022-12-29T05:05:37;11.30;75.00
19180;DHT22;9722;48.754;8.868;2022-12-29T05:08:57;11.20;75.20
19180;DHT22;9722;48.754;8.868;2022-12-29T05:12:18;11.20;75.30
19180;DHT22;9722;48.754;8.868;2022-12-29T05:15:39;11.20;75.50
19180;DHT22;9722;48.754;8.868;2022-12-29T05:18:59;11.20;75.60
19180;DHT22;9722;48.754;8.868;2022-12-29T05:22:20;11.20;75.70
19180;DHT22;9722;48.754;8.868;2022-12-29T05:25:41;11.20;75.90
19180;DHT22;9722;48.754;8.868;2022-12-29T05:29:01;11.20;76.10
19180;DHT22;9722;48.754;8.868;2022-12-29T05:32:22;11.30;76.20
19180;DHT22;9722;48.754;8.868;2022-12-29T05:35:43;11.20;76.10
19180;DHT22;9722;48.754;8.868;2022-12-29T05:39:03;11.30;76.00
19180;DHT22;9722;48.754;8.868;2022-12-29T05:42:24;11.30;75.80
19180;DHT22;9722;48.754;8.868;2022-12-29T05:45:48;11.30;75.70
19180;DHT22;9722;48.754;8.868;2022-12-29T05:49:09;11.40;75.90
19180;DHT22;9722;48.754;8.868;2022-12-29T05:52:29;11.40;75.80
19180;DHT22;9722;48.754;8.868;2022-12-29T05:55:50;11.40;76.10
19180;DHT22;9722;48.754;8.868;2022-12-29T05:59:10;11.40;76.10
19180;DHT22;9722;48.754;8.868;2022-12-29T06:02:31;11.30;76.10
19180;DHT22;9722;48.754;8.868;2022-12-29T06:05:51;11.30;76.30
19180;DHT22;9722;48.754;8.868;2022-12-29T06:09:12;11.20;76.50
19180;DHT22;9722;48.754;8.868;2022-12-29T06:12:32;11.10;76.60
19180;DHT22;9722;48.754;8.868;2022-12-29T06:15:53;11.00;76.90
19180;DHT22;9722;48.754;8.868;2022-12-29T06:19:14;10.90;77.20
19180;DHT22;9722;48.754;8.868;2022-12-29T06:22:34;10.90;77.40
19180;DHT22;9722;48.754;8.868;2022-12-29T06:25:55;10.80;77.40
19180;DHT22;9722;48.754;8.868;2022-12-29T06:29:15;10.80;77.50
19180;DHT22;9722;48.754;8.868;2022-12-29T06:32:37;10.90;77.60
19180;DHT22;9722;48.754;8.868;2022-12-29T06:35:57;10.90;77.60
19180;DHT22;9722;48.754;8.868;2022-12-29T06:39:18;10.80;77.60
19180;DHT22;9722;48.754;8.868;2022-12-29T06:42:39;10.80;77.60
19180;DHT22;9722;48.754;8.868;2022-12-29T06:45:59;10.80;77.70
19180;DHT22;9722;48.754;8.868;2022-12-29T06:49:20;10.70;77.70
19180;DHT22;9722;48.754;8.868;2022-12-29T06:52:40;10.70;77.70
19180;DHT22;9722;48.754;8.868;2022-12-29T06:56:01;10.60;77.80
19180;DHT22;9722;48.754;8.868;2022-12-29T06:59:21;10.60;77.90
19180;DHT22;9722;48.754;8.868;2022-12-29T07:02:42;10.50;77.80
19180;DHT22;9722;48.754;8.868;2022-12-29T07:06:02;10.40;77.90
19180;DHT22;9722;48.754;8.868;2022-12-29T07:09:23;10.40;78.80
19180;DHT22;9722;48.754;8.868;2022-12-29T07:12:44;10.40;78.10
19180;DHT22;9722;48.754;8.868;2022-12-29T07:16:06;10.30;78.30
19180;DHT22;9722;48.754;8.868;2022-12-29T07:19:27;10.20;78.40
19180;DHT22;9722;48.754;8.868;2022-12-29T07:22:47;10.20;78.60
19180;DHT22;9722;48.754;8.868;2022-12-29T07:26:11;10.10;78.60
19180;DHT22;9722;48.754;8.868;2022-12-29T07:29:31;10.10;78.60
19180;DHT22;9722;48.754;8.868;2022-12-29T07:32:52;10.10;78.80
19180;DHT22;9722;48.754;8.868;2022-12-29T07:36:13;10.10;78.80
19180;DHT22;9722;48.754;8.868;2022-12-29T07:39:34;10.10;78.70
19180;DHT22;9722;48.754;8.868;2022-12-29T07:42:55;10.10;78.60
19180;DHT22;9722;48.754;8.868;2022-12-29T07:46:15;10.20;78.60
19180;DHT22;9722;48.754;8.868;2022-12-29T07:49:36;10.20;78.40
19180;DHT22;9722;48.754;8.868;2022-12-29T07:52:56;10.20;78.40
19180;DHT22;9722;48.754;8.868;2022-12-29T07:56:17;10.20;78.40
19180;DHT22;9722;48.754;8.868;2022-12-29T07:59:37;10.10;78.30
19180;DHT22;9722;48.754;8.868;2022-12-29T08:02:58;10.20;78.20
19180;DHT22;9722;48.754;8.868;2022-12-29T08:06:18;10.30;78.70
19180;DHT22;9722;48.754;8.868;2022-12-29T08:09:40;10.30;77.50
19180;DHT22;9722;48.754;8.868;2022-12-29T08:13:00;10.50;77.10
19180;DHT22;9722;48.754;8.868;2022-12-29T08:16:21;10.60;76.30
19180;DHT22;9722;48.754;8.868;2022-12-29T08:19:41;10.90;76.00
19180;DHT22;9722;48.754;8.868;2022-12-29T08:23:03;11.00;74.40
19180;DHT22;9722;48.754;8.868;2022-12-29T08:26:23;11.20;73.60
19180;DHT22;9722;48.754;8.868;2022-12-29T08:29:44;11.40;72.90
19180;DHT22;9722;48.754;8.868;2022-12-29T08:33:04;11.50;72.40
19180;DHT22;9722;48.754;8.868;2022-12-29T08:36:25;11.50;71.90
19180;DHT22;9722;48.754;8.868;2022-12-29T08:39:45;11.60;71.40
19180;DHT22;9722;48.754;8.868;2022-12-29T08:43:06;11.80;70.80
19180;DHT22;9722;48.754;8.868;2022-12-29T08:46:26;11.90;70.40
19180;DHT22;9722;48.754;8.868;2022-12-29T08:49:47;12.00;69.80
19180;DHT22;9722;48.754;8.868;2022-12-29T08:53:07;12.20;69.40
19180;DHT22;9722;48.754;8.868;2022-12-29T08:56:28;12.20;69.10
19180;DHT22;9722;48.754;8.868;2022-12-29T08:59:48;12.30;69.00
19180;DHT22;9722;48.754;8.868;2022-12-29T09:03:09;12.40;68.80
19180;DHT22;9722;48.754;8.868;2022-12-29T09:06:29;12.90;68.30
19180;DHT22;9722;48.754;8.868;2022-12-29T09:09:50;13.20;66.80
19180;DHT22;9722;48.754;8.868;2022-12-29T09:13:12;13.40;66.50
19180;DHT22;9722;48.754;8.868;2022-12-29T09:16:33;13.60;66.00
19180;DHT22;9722;48.754;8.868;2022-12-29T09:19:54;14.40;64.10
19180;DHT22;9722;48.754;8.868;2022-12-29T09:23:15;14.70;62.70
19180;DHT22;9722;48.754;8.868;2022-12-29T09:26:35;14.70;62.50
19180;DHT22;9722;48.754;8.868;2022-12-29T09:29:56;14.60;62.50
19180;DHT22;9722;48.754;8.868;2022-12-29T09:33:17;14.60;62.60
19180;DHT22;9722;48.754;8.868;2022-12-29T09:36:38;14.60;62.60
19180;DHT22;9722;48.754;8.868;2022-12-29T09:39:58;14.60;62.40
19180;DHT22;9722;48.754;8.868;2022-12-29T09:46:49;14.90;61.40
19180;DHT22;9722;48.754;8.868;2022-12-29T09:53:45;15.50;60.00
19180;DHT22;9722;48.754;8.868;2022-12-29T09:57:21;15.30;60.20
19180;DHT22;9722;48.754;8.868;2022-12-29T10:00:52;15.10;61.00
19180;DHT22;9722;48.754;8.868;2022-12-29T10:04:14;15.00;61.70
19180;DHT22;9722;48.754;8.868;2022-12-29T10:07:47;15.00;61.50
19180;DHT22;9722;48.754;8.868;2022-12-29T10:11:29;15.20;60.70
19180;DHT22;9722;48.754;8.868;2022-12-29T10:22:24;16.00;58.80
19180;DHT22;9722;48.754;8.868;2022-12-29T10:25:48;15.70;59.20
19180;DHT22;9722;48.754;8.868;2022-12-29T10:29:16;15.60;60.00
19180;DHT22;9722;48.754;8.868;2022-12-29T10:32:45;16.40;59.60
19180;DHT22;9722;48.754;8.868;2022-12-29T10:36:16;17.50;58.50
19180;DHT22;9722;48.754;8.868;2022-12-29T10:39:45;18.30;57.10
19180;DHT22;9722;48.754;8.868;2022-12-29T10:43:27;18.40;55.80
19180;DHT22;9722;48.754;8.868;2022-12-29T10:46:56;18.70;55.20
19180;DHT22;9722;48.754;8.868;2022-12-29T10:50:17;19.10;54.60
19180;DHT22;9722;48.754;8.868;2022-12-29T10:53:45;20.10;53.20
19180;DHT22;9722;48.754;8.868;2022-12-29T10:57:23;20.20;52.20
19180;DHT22;9722;48.754;8.868;2022-12-29T11:00:51;19.40;52.40
19180;DHT22;9722;48.754;8.868;2022-12-29T11:07:47;17.70;54.00
19180;DHT22;9722;48.754;8.868;2022-12-29T11:11:10;17.10;54.80
19180;DHT22;9722;48.754;8.868;2022-12-29T11:14:31;16.70;55.50
19180;DHT22;9722;48.754;8.868;2022-12-29T11:17:56;16.30;56.10
19180;DHT22;9722;48.754;8.868;2022-12-29T11:21:32;16.00;56.40
19180;DHT22;9722;48.754;8.868;2022-12-29T11:24:54;15.70;56.60
19180;DHT22;9722;48.754;8.868;2022-12-29T11:28:24;15.40;56.80
19180;DHT22;9722;48.754;8.868;2022-12-29T11:31:51;15.10;57.30
19180;DHT22;9722;48.754;8.868;2022-12-29T11:35:36;14.80;58.00
19180;DHT22;9722;48.754;8.868;2022-12-29T11:38:56;14.60;58.00
19180;DHT22;9722;48.754;8.868;2022-12-29T11:42:20;14.30;58.50
19180;DHT22;9722;48.754;8.868;2022-12-29T11:45:45;14.20;59.50
19180;DHT22;9722;48.754;8.868;2022-12-29T11:49:10;14.00;60.40
19180;DHT22;9722;48.754;8.868;2022-12-29T11:52:35;13.90;61.70
19180;DHT22;9722;48.754;8.868;2022-12-29T11:55:58;13.70;63.60
19180;DHT22;9722;48.754;8.868;2022-12-29T11:59:34;13.50;65.70
19180;DHT22;9722;48.754;8.868;2022-12-29T12:03:15;13.30;67.00
19180;DHT22;9722;48.754;8.868;2022-12-29T12:06:44;13.20;67.80
19180;DHT22;9722;48.754;8.868;2022-12-29T12:10:16;13.20;68.30
19180;DHT22;9722;48.754;8.868;2022-12-29T12:17:40;13.10;69.00
19180;DHT22;9722;48.754;8.868;2022-12-29T12:21:17;13.00;69.50
19180;DHT22;9722;48.754;8.868;2022-12-29T12:24:48;13.10;70.00
19180;DHT22;9722;48.754;8.868;2022-12-29T12:28:20;13.20;70.30
19180;DHT22;9722;48.754;8.868;2022-12-29T12:50:32;18.40;58.60
19180;DHT22;9722;48.754;8.868;2022-12-29T12:54:05;19.40;56.80
19180;DHT22;9722;48.754;8.868;2022-12-29T13:08:31;17.50;57.10
19180;DHT22;9722;48.754;8.868;2022-12-29T13:19:31;16.50;58.90
19180;DHT22;9722;48.754;8.868;2022-12-29T13:26:32;15.00;61.60
19180;DHT22;9722;48.754;8.868;2022-12-29T13:30:03;14.60;62.80
19180;DHT22;9722;48.754;8.868;2022-12-29T13:33:54;14.20;64.00
19180;DHT22;9722;48.754;8.868;2022-12-29T13:37:19;13.90;65.00
19180;DHT22;9722;48.754;8.868;2022-12-29T13:40:44;13.70;66.10
19180;DHT22;9722;48.754;8.868;2022-12-29T13:44:07;13.60;66.90
19180;DHT22;9722;48.754;8.868;2022-12-29T13:47:55;13.40;67.50
19180;DHT22;9722;48.754;8.868;2022-12-29T13:51:18;13.30;68.30
19180;DHT22;9722;48.754;8.868;2022-12-29T13:54:55;13.10;68.80
19180;DHT22;9722;48.754;8.868;2022-12-29T13:58:27;13.00;69.70
19180;DHT22;9722;48.754;8.868;2022-12-29T14:01:55;12.90;70.40
19180;DHT22;9722;48.754;8.868;2022-12-29T14:08:39;12.80;71.60
19180;DHT22;9722;48.754;8.868;2022-12-29T14:12:00;12.70;72.30
19180;DHT22;9722;48.754;8.868;2022-12-29T14:15:22;12.70;72.80
19180;DHT22;9722;48.754;8.868;2022-12-29T14:18:44;12.70;73.40
19180;DHT22;9722;48.754;8.868;2022-12-29T14:22:05;12.90;73.90
19180;DHT22;9722;48.754;8.868;2022-12-29T14:33:01;12.90;74.00
19180;DHT22;9722;48.754;8.868;2022-12-29T14:36:33;12.80;74.40
19180;DHT22;9722;48.754;8.868;2022-12-29T14:43:34;12.60;76.00
19180;DHT22;9722;48.754;8.868;2022-12-29T14:47:08;12.50;75.70
19180;DHT22;9722;48.754;8.868;2022-12-29T14:50:40;12.40;76.20
19180;DHT22;9722;48.754;8.868;2022-12-29T14:58:00;12.20;76.60
19180;DHT22;9722;48.754;8.868;2022-12-29T15:04:54;12.10;77.70
19180;DHT22;9722;48.754;8.868;2022-12-29T15:08:22;12.00;78.40
19180;DHT22;9722;48.754;8.868;2022-12-29T15:11:50;11.90;78.70
19180;DHT22;9722;48.754;8.868;2022-12-29T15:15:36;11.90;79.30
19180;DHT22;9722;48.754;8.868;2022-12-29T15:18:57;11.80;79.80
19180;DHT22;9722;48.754;8.868;2022-12-29T15:22:18;11.70;81.10
19180;DHT22;9722;48.754;8.868;2022-12-29T15:25:49;11.70;80.60
19180;DHT22;9722;48.754;8.868;2022-12-29T15:29:31;11.60;80.90
19180;DHT22;9722;48.754;8.868;2022-12-29T15:32:52;11.70;81.40
19180;DHT22;9722;48.754;8.868;2022-12-29T15:36:37;11.60;81.90
19180;DHT22;9722;48.754;8.868;2022-12-29T15:39:57;11.50;82.80
19180;DHT22;9722;48.754;8.868;2022-12-29T15:47:28;11.20;84.60
19180;DHT22;9722;48.754;8.868;2022-12-29T15:50:50;11.00;85.10
19180;DHT22;9722;48.754;8.868;2022-12-29T15:54:19;10.90;85.70
19180;DHT22;9722;48.754;8.868;2022-12-29T15:57:42;10.70;86.40
19180;DHT22;9722;48.754;8.868;2022-12-29T16:01:03;10.60;87.00
19180;DHT22;9722;48.754;8.868;2022-12-29T16:04:33;10.50;87.80
19180;DHT22;9722;48.754;8.868;2022-12-29T16:07:56;10.40;88.50
19180;DHT22;9722;48.754;8.868;2022-12-29T16:11:24;10.30;89.10
19180;DHT22;9722;48.754;8.868;2022-12-29T16:14:49;10.30;89.70
19180;DHT22;9722;48.754;8.868;2022-12-29T16:18:23;10.30;90.00
19180;DHT22;9722;48.754;8.868;2022-12-29T16:21:46;10.20;90.30
19180;DHT22;9722;48.754;8.868;2022-12-29T16:25:19;10.20;90.50
19180;DHT22;9722;48.754;8.868;2022-12-29T16:28:42;10.20;90.80
19180;DHT22;9722;48.754;8.868;2022-12-29T16:32:03;10.20;90.90
19180;DHT22;9722;48.754;8.868;2022-12-29T16:39:16;10.20;91.40
19180;DHT22;9722;48.754;8.868;2022-12-29T16:46:27;10.20;91.90
19180;DHT22;9722;48.754;8.868;2022-12-29T16:49:51;10.20;92.20
19180;DHT22;9722;48.754;8.868;2022-12-29T16:53:25;10.20;92.40
19180;DHT22;9722;48.754;8.868;2022-12-29T16:56:47;10.20;92.50
19180;DHT22;9722;48.754;8.868;2022-12-29T17:00:18;10.20;92.60
19180;DHT22;9722;48.754;8.868;2022-12-29T17:03:41;10.20;92.90
19180;DHT22;9722;48.754;8.868;2022-12-29T17:07:10;10.20;93.00
19180;DHT22;9722;48.754;8.868;2022-12-29T17:10:35;10.20;93.30
19180;DHT22;9722;48.754;8.868;2022-12-29T17:14:35;10.20;93.40
19180;DHT22;9722;48.754;8.868;2022-12-29T17:17:57;10.20;93.70
19180;DHT22;9722;48.754;8.868;2022-12-29T17:21:19;10.20;93.80
19180;DHT22;9722;48.754;8.868;2022-12-29T17:24:39;10.10;94.00
19180;DHT22;9722;48.754;8.868;2022-12-29T17:28:03;10.10;94.30
19180;DHT22;9722;48.754;8.868;2022-12-29T17:31:24;10.10;94.60
19180;DHT22;9722;48.754;8.868;2022-12-29T17:34:44;10.00;95.10
19180;DHT22;9722;48.754;8.868;2022-12-29T17:38:19;10.00;95.00
19180;DHT22;9722;48.754;8.868;2022-12-29T17:41:40;10.00;95.20
19180;DHT22;9722;48.754;8.868;2022-12-29T17:45:01;10.00;95.50
19180;DHT22;9722;48.754;8.868;2022-12-29T17:48:22;9.90;96.20
19180;DHT22;9722;48.754;8.868;2022-12-29T17:51:44;9.90;96.30
19180;DHT22;9722;48.754;8.868;2022-12-29T17:55:14;9.90;96.60
19180;DHT22;9722;48.754;8.868;2022-12-29T17:58:35;10.00;96.40
19180;DHT22;9722;48.754;8.868;2022-12-29T18:01:55;9.90;97.00
19180;DHT22;9722;48.754;8.868;2022-12-29T18:05:24;9.90;97.20
19180;DHT22;9722;48.754;8.868;2022-12-29T18:08:45;9.90;97.40
19180;DHT22;9722;48.754;8.868;2022-12-29T18:12:26;9.80;97.40
19180;DHT22;9722;48.754;8.868;2022-12-29T18:15:48;9.80;97.70
19180;DHT22;9722;48.754;8.868;2022-12-29T18:19:08;9.80;97.80
19180;DHT22;9722;48.754;8.868;2022-12-29T18:22:29;9.70;97.90
19180;DHT22;9722;48.754;8.868;2022-12-29T18:25:55;9.70;98.00
19180;DHT22;9722;48.754;8.868;2022-12-29T18:29:18;9.70;98.10
19180;DHT22;9722;48.754;8.868;2022-12-29T18:32:38;9.70;98.00
19180;DHT22;9722;48.754;8.868;2022-12-29T18:36:01;9.70;98.00
19180;DHT22;9722;48.754;8.868;2022-12-29T18:39:22;9.60;97.90
19180;DHT22;9722;48.754;8.868;2022-12-29T18:42:43;9.60;97.90
19180;DHT22;9722;48.754;8.868;2022-12-29T18:46:04;9.70;98.00
19180;DHT22;9722;48.754;8.868;2022-12-29T18:49:24;9.60;98.00
19180;DHT22;9722;48.754;8.868;2022-12-29T18:52:45;9.60;98.10
19180;DHT22;9722;48.754;8.868;2022-12-29T18:56:06;9.50;98.00
19180;DHT22;9722;48.754;8.868;2022-12-29T18:59:28;9.50;98.00
19180;DHT22;9722;48.754;8.868;2022-12-29T19:02:50;9.50;98.10
19180;DHT22;9722;48.754;8.868;2022-12-29T19:06:11;9.40;98.10
19180;DHT22;9722;48.754;8.868;2022-12-29T19:09:31;9.40;98.10
19180;DHT22;9722;48.754;8.868;2022-12-29T19:12:52;9.40;98.10
19180;DHT22;9722;48.754;8.868;2022-12-29T19:16:20;9.40;98.10
19180;DHT22;9722;48.754;8.868;2022-12-29T19:19:41;9.40;98.10
19180;DHT22;9722;48.754;8.868;2022-12-29T19:23:08;9.30;97.90
19180;DHT22;9722;48.754;8.868;2022-12-29T19:26:31;9.30;98.00
19180;DHT22;9722;48.754;8.868;2022-12-29T19:29:53;9.20;97.90
19180;DHT22;9722;48.754;8.868;2022-12-29T19:33:14;9.20;97.80
19180;DHT22;9722;48.754;8.868;2022-12-29T19:36:35;9.10;97.80
19180;DHT22;9722;48.754;8.868;2022-12-29T19:39:55;9.10;97.70
19180;DHT22;9722;48.754;8.868;2022-12-29T19:43:17;9.10;97.90
19180;DHT22;9722;48.754;8.868;2022-12-29T19:46:38;9.00;97.80
19180;DHT22;9722;48.754;8.868;2022-12-29T19:49:59;9.00;98.20
19180;DHT22;9722;48.754;8.868;2022-12-29T19:53:20;8.90;97.80
19180;DHT22;9722;48.754;8.868;2022-12-29T19:56:40;9.00;97.80
19180;DHT22;9722;48.754;8.868;2022-12-29T20:00:03;8.90;97.70
19180;DHT22;9722;48.754;8.868;2022-12-29T20:03:25;8.90;97.70
19180;DHT22;9722;48.754;8.868;2022-12-29T20:06:45;8.90;97.70
19180;DHT22;9722;48.754;8.868;2022-12-29T20:10:07;8.90;97.70
19180;DHT22;9722;48.754;8.868;2022-12-29T20:13:30;8.90;97.70
19180;DHT22;9722;48.754;8.868;2022-12-29T20:16:50;8.80;97.70
19180;DHT22;9722;48.754;8.868;2022-12-29T20:20:11;8.80;97.70
19180;DHT22;9722;48.754;8.868;2022-12-29T20:23:34;8.80;97.70
19180;DHT22;9722;48.754;8.868;2022-12-29T20:26:56;8.80;97.70
19180;DHT22;9722;48.754;8.868;2022-12-29T20:30:18;8.80;97.70
19180;DHT22;9722;48.754;8.868;2022-12-29T20:33:38;8.80;97.70
19180;DHT22;9722;48.754;8.868;2022-12-29T20:36:59;8.70;97.60
19180;DHT22;9722;48.754;8.868;2022-12-29T20:40:19;8.70;97.60
19180;DHT22;9722;48.754;8.868;2022-12-29T20:43:40;8.60;97.70
19180;DHT22;9722;48.754;8.868;2022-12-29T20:47:02;8.60;97.90
19180;DHT22;9722;48.754;8.868;2022-12-29T20:50:25;8.50;98.10
19180;DHT22;9722;48.754;8.868;2022-12-29T20:53:46;8.50;98.10
19180;DHT22;9722;48.754;8.868;2022-12-29T20:57:07;8.50;98.20
19180;DHT22;9722;48.754;8.868;2022-12-29T21:00:28;8.50;98.30
19180;DHT22;9722;48.754;8.868;2022-12-29T21:03:52;8.50;98.20
19180;DHT22;9722;48.754;8.868;2022-12-29T21:07:13;8.50;98.70
19180;DHT22;9722;48.754;8.868;2022-12-29T21:10:33;8.50;98.30
19180;DHT22;9722;48.754;8.868;2022-12-29T21:13:54;8.40;98.10
19180;DHT22;9722;48.754;8.868;2022-12-29T21:17:14;8.40;97.90
19180;DHT22;9722;48.754;8.868;2022-12-29T21:20:35;8.40;97.90
19180;DHT22;9722;48.754;8.868;2022-12-29T21:23:55;8.40;97.80
19180;DHT22;9722;48.754;8.868;2022-12-29T21:27:24;8.30;97.70
19180;DHT22;9722;48.754;8.868;2022-12-29T21:30:45;8.30;97.50
19180;DHT22;9722;48.754;8.868;2022-12-29T21:34:06;8.20;97.20
19180;DHT22;9722;48.754;8.868;2022-12-29T21:37:26;8.20;97.10
19180;DHT22;9722;48.754;8.868;2022-12-29T21:40:47;8.10;97.00
19180;DHT22;9722;48.754;8.868;2022-12-29T21:44:08;8.00;96.70
19180;DHT22;9722;48.754;8.868;2022-12-29T21:47:47;8.00;96.70
19180;DHT22;9722;48.754;8.868;2022-12-29T21:51:26;7.90;96.60
19180;DHT22;9722;48.754;8.868;2022-12-29T21:55:06;7.90;96.80
19180;DHT22;9722;48.754;8.868;2022-12-29T21:58:28;7.90;96.80
19180;DHT22;9722;48.754;8.868;2022-12-29T22:02:22;7.80;96.90
19180;DHT22;9722;48.754;8.868;2022-12-29T22:06:01;7.80;96.80
19180;DHT22;9722;48.754;8.868;2022-12-29T22:09:40;7.80;96.80
19180;DHT22;9722;48.754;8.868;2022-12-29T22:13:20;7.70;96.80
19180;DHT22;9722;48.754;8.868;2022-12-29T22:16:40;7.70;96.90
19180;DHT22;9722;48.754;8.868;2022-12-29T22:20:01;7.70;96.90
19180;DHT22;9722;48.754;8.868;2022-12-29T22:23:21;7.70;96.90
19180;DHT22;9722;48.754;8.868;2022-12-29T22:26:42;7.60;96.90
19180;DHT22;9722;48.754;8.868;2022-12-29T22:30:03;7.60;97.00
19180;DHT22;9722;48.754;8.868;2022-12-29T22:33:24;7.60;97.10
19180;DHT22;9722;48.754;8.868;2022-12-29T22:36:44;7.60;97.20
19180;DHT22;9722;48.754;8.868;2022-12-29T22:40:06;7.60;97.30
19180;DHT22;9722;48.754;8.868;2022-12-29T22:43:27;7.60;97.40
19180;DHT22;9722;48.754;8.868;2022-12-29T22:46:49;7.60;97.40
19180;DHT22;9722;48.754;8.868;2022-12-29T22:50:09;7.60;97.50
19180;DHT22;9722;48.754;8.868;2022-12-29T22:53:30;7.60;97.60
19180;DHT22;9722;48.754;8.868;2022-12-29T22:56:50;7.50;97.50
19180;DHT22;9722;48.754;8.868;2022-12-29T23:00:11;7.50;97.50
19180;DHT22;9722;48.754;8.868;2022-12-29T23:03:32;7.50;97.60
19180;DHT22;9722;48.754;8.868;2022-12-29T23:06:52;7.50;97.70
19180;DHT22;9722;48.754;8.868;2022-12-29T23:10:13;7.50;97.80
19180;DHT22;9722;48.754;8.868;2022-12-29T23:13:33;7.40;97.90
19180;DHT22;9722;48.754;8.868;2022-12-29T23:16:54;7.40;98.00
19180;DHT22;9722;48.754;8.868;2022-12-29T23:20:14;7.40;98.00
19180;DHT22;9722;48.754;8.868;2022-12-29T23:23:35;7.30;98.00
19180;DHT22;9722;48.754;8.868;2022-12-29T23:27:15;7.30;98.10
19180;DHT22;9722;48.754;8.868;2022-12-29T23:30:35;7.30;98.20
19180;DHT22;9722;48.754;8.868;2022-12-29T23:33:57;7.30;98.20
19180;DHT22;9722;48.754;8.868;2022-12-29T23:37:17;7.20;98.30
19180;DHT22;9722;48.754;8.868;2022-12-29T23:40:38;7.30;98.50
19180;DHT22;9722;48.754;8.868;2022-12-29T23:43:58;7.20;98.60
19180;DHT22;9722;48.754;8.868;2022-12-29T23:47:19;7.20;98.60
19180;DHT22;9722;48.754;8.868;2022-12-29T23:50:40;7.20;98.70
19180;DHT22;9722;48.754;8.868;2022-12-29T23:54:01;7.20;98.90
19180;DHT22;9722;48.754;8.868;2022-12-29T23:57:21;7.10;99.00
